Alexander City, AL

10:22 AM CDT on June 28, 2017 (GMT -0500)
Russell

Weather History for KALX - December, 2012

Change the Weather History Date:

Sunday, December 2, 2012

  Actual Average (KAUO) Record (KAUO)
Temperature  
Mean Temperature 58 °F -  
Max Temperature 74 °F 60 °F 78 °F (1982)
Min Temperature 42 °F 36 °F 20 °F (1979)
Degree Days  
Heating Degree Days 7    
Growing Degree Days 8 (Base 50)    
Moisture  
Dew Point 47 °F    
Average Humidity 72    
Maximum Humidity 89    
Minimum Humidity 36    
Precipitation  
Precipitation 0.00 in - - ()
Sea Level Pressure  
Sea Level Pressure 30.30 in    
Wind  
Wind Speed 1 mph (South)    
Max Wind Speed 10 mph    
Max Gust Speed -    
Visibility 10 miles    
Events      
Averages and records for this station are not official NWS values.
T = Trace of Precipitation, MM = Missing Value Source: NWS Daily Summary

Daily Weather History Graph

Daily Weather History Graph

Search for Another Location

Airport or City:

Trip Planner

Search our weather history database for the weather conditions in past years. The results will help you decide how hot, cold, wet, or windy it might be!

Date:

Astronomy

Dec. 02, 2012 Rise Set
Actual Time 6:29 AM CST 4:37 PM CST
Civil Twilight 6:02 AM CST 5:04 PM CST
Nautical Twilight 5:32 AM CST 5:34 PM CST
Astronomical Twilight 5:02 AM CST 6:04 PM CST
Moon 8:18 PM CST (12/2) 9:23 AM CST (12/2)
Length of Visible Light 11h 01m
Length of Day
10h 07m
Waning Gibbous, 85% of the Moon is Illuminated
Dec 2
Waning Gibbous
Dec 6
Last Quarter
Dec 13
New
Dec 19
First Quarter
Dec 28
Full

Hourly Weather History & Observations

Time (CST) Temp. Dew Point Humidity Pressure Visibility Wind Dir Wind Speed Gust Speed Precip Events Conditions
12:15 AM 47.1 °F 43.3 °F 87% 30.29 in 10.0 mi Calm Calm - N/A   Clear
12:35 AM 47.3 °F 42.6 °F 84% 30.30 in 10.0 mi Calm Calm - N/A   Clear
12:55 AM 47.5 °F 43.7 °F 87% 30.30 in 10.0 mi Calm Calm - N/A   Clear
1:15 AM 43.7 °F 39.7 °F 86% 30.30 in 10.0 mi Calm Calm - N/A   Clear
1:35 AM 43.3 °F 39.7 °F 87% 30.30 in 10.0 mi Calm Calm - N/A   Clear
1:55 AM 42.8 °F 39.6 °F 88% 30.31 in 10.0 mi Calm Calm - N/A   Clear
2:15 AM 43.3 °F 40.1 °F 88% 30.31 in 10.0 mi Calm Calm - N/A   Clear
2:35 AM 47.1 °F 43.5 °F 87% 30.31 in 10.0 mi Calm Calm - N/A   Clear
2:55 AM 45.0 °F 41.4 °F 87% 30.31 in 10.0 mi Calm Calm - N/A   Clear
3:15 AM 43.3 °F 39.7 °F 87% 30.31 in 10.0 mi Calm Calm - N/A   Clear
3:35 AM 47.3 °F 43.7 °F 87% 30.31 in 10.0 mi Calm Calm - N/A   Scattered Clouds
3:55 AM 44.1 °F 40.5 °F 87% 30.31 in 10.0 mi Calm Calm - N/A   Clear
4:15 AM 42.8 °F 38.3 °F 84% 30.31 in 10.0 mi Calm Calm - N/A   Clear
4:35 AM 42.1 °F 37.9 °F 85% 30.31 in 10.0 mi Calm Calm - N/A   Clear
4:55 AM 42.8 °F 39.4 °F 88% 30.32 in 10.0 mi Calm Calm - N/A   Clear
5:15 AM 42.1 °F 38.7 °F 88% 30.32 in 10.0 mi Calm Calm - N/A   Clear
5:35 AM 42.1 °F 39.0 °F 89% 30.33 in 10.0 mi Calm Calm - N/A   Scattered Clouds
5:55 AM 42.1 °F 38.7 °F 88% 30.33 in 10.0 mi Calm Calm - N/A   Scattered Clouds
6:15 AM 42.1 °F 38.7 °F 88% 30.34 in 10.0 mi Calm Calm - N/A   Clear
6:35 AM 44.4 °F 41.2 °F 88% 30.34 in 7.0 mi Calm Calm - N/A   Clear
6:55 AM 44.4 °F 41.4 °F 89% 30.34 in 10.0 mi Calm Calm - N/A   Clear
7:15 AM 47.3 °F 43.2 °F 86% 30.35 in 10.0 mi Calm Calm - N/A   Clear
7:35 AM 49.6 °F 45.5 °F 86% 30.35 in 10.0 mi Calm Calm - N/A   Clear
7:55 AM 52.0 °F 47.8 °F 86% 30.35 in 10.0 mi Calm Calm - N/A   Clear
8:15 AM 54.7 °F 48.6 °F 80% 30.36 in 10.0 mi Calm Calm - N/A   Clear
8:35 AM 57.2 °F 50.0 °F 77% 30.36 in 10.0 mi NE 3.5 mph - N/A   Clear
8:55 AM 59.9 °F 50.9 °F 72% 30.36 in 10.0 mi Calm Calm - N/A   Clear
9:15 AM 61.0 °F 51.1 °F 70% 30.37 in 10.0 mi Calm Calm - N/A   Clear
9:35 AM 63.0 °F 52.2 °F 68% 30.36 in 10.0 mi Calm Calm - N/A   Clear
9:55 AM 65.1 °F 54.0 °F 67% 30.36 in 10.0 mi Calm Calm - N/A   Clear
10:15 AM 67.3 °F 55.4 °F 66% 30.36 in 10.0 mi SSE 3.5 mph - N/A   Clear
10:35 AM 69.8 °F 56.8 °F 63% 30.35 in 10.0 mi Calm Calm - N/A   Clear
10:55 AM 69.8 °F 55.6 °F 61% 30.34 in 10.0 mi SSW 4.6 mph - N/A   Clear
11:15 AM 72.5 °F 55.4 °F 55% 30.33 in 10.0 mi Calm Calm - N/A   Clear
11:35 AM 74.8 °F 54.9 °F 50% 30.32 in 10.0 mi South 6.9 mph - N/A   Clear
11:55 AM 74.8 °F 54.0 °F 48% 30.31 in 10.0 mi South 6.9 mph - N/A   Clear
12:15 PM 74.8 °F 49.8 °F 41% 30.30 in 10.0 mi South 5.8 mph - N/A   Clear
12:35 PM 74.8 °F 49.5 °F 41% 30.29 in 10.0 mi SSW 10.4 mph - N/A   Clear
12:55 PM 74.8 °F 46.0 °F 36% 30.28 in 10.0 mi South 3.5 mph - N/A   Clear
1:15 PM 74.8 °F 47.8 °F 38% 30.28 in 10.0 mi SE 3.5 mph - N/A   Clear
1:35 PM 74.8 °F 47.5 °F 38% 30.27 in 10.0 mi SSW 4.6 mph - N/A   Clear
1:55 PM 74.8 °F 47.1 °F 37% 30.26 in 10.0 mi South 4.6 mph - N/A   Scattered Clouds
2:15 PM 74.8 °F 46.2 °F 36% 30.26 in 10.0 mi SSW 4.6 mph - N/A   Scattered Clouds
2:35 PM 74.8 °F 47.5 °F 38% 30.26 in 10.0 mi South 4.6 mph - N/A   Clear
3:15 PM 74.8 °F 46.9 °F 37% 30.26 in 10.0 mi SSE 3.5 mph - N/A   Clear
3:35 PM 74.8 °F 47.5 °F 38% 30.26 in 10.0 mi SW 4.6 mph - N/A   Clear
3:55 PM 74.8 °F 48.4 °F 39% 30.26 in 10.0 mi Calm Calm - N/A   Clear
4:15 PM 72.5 °F 47.8 °F 42% 30.25 in 10.0 mi Calm Calm - N/A   Clear
4:35 PM 69.8 °F 50.2 °F 50% 30.25 in 10.0 mi Calm Calm - N/A   Clear
4:55 PM 66.0 °F 49.8 °F 56% 30.25 in 10.0 mi Calm Calm - N/A   Clear
5:15 PM 62.2 °F 49.5 °F 63% 30.26 in 10.0 mi Calm Calm - N/A   Clear
5:35 PM 60.8 °F 49.5 °F 66% 30.26 in 10.0 mi Calm Calm - N/A   Clear
5:55 PM 59.9 °F 49.8 °F 69% 30.26 in 10.0 mi Calm Calm - N/A   Clear
6:15 PM 58.3 °F 49.5 °F 72% 30.26 in 10.0 mi Calm Calm - N/A   Clear
6:35 PM 56.3 °F 48.7 °F 76% 30.26 in 10.0 mi Calm Calm - N/A   Clear
6:55 PM 57.2 °F 49.8 °F 76% 30.26 in 10.0 mi Calm Calm - N/A   Clear
7:15 PM 57.2 °F 50.2 °F 77% 30.26 in 7.0 mi Calm Calm - N/A   Clear
7:55 PM 54.7 °F 48.4 °F 79% 30.27 in 10.0 mi Calm Calm - N/A   Clear
8:15 PM 54.7 °F 49.5 °F 83% 30.27 in 10.0 mi Calm Calm - N/A   Clear
8:35 PM 52.2 °F 47.3 °F 83% 30.27 in 10.0 mi Calm Calm - N/A   Clear
8:55 PM 52.2 °F 47.5 °F 84% 30.27 in 10.0 mi Calm Calm - N/A   Clear
9:15 PM 52.2 °F 48.2 °F 86% 30.27 in 10.0 mi Calm Calm - N/A   Clear
9:35 PM 51.3 °F 47.7 °F 87% 30.26 in 10.0 mi Calm Calm - N/A   Clear
9:55 PM 52.2 °F 47.8 °F 85% 30.26 in 10.0 mi Calm Calm - N/A   Clear
10:15 PM 51.6 °F 47.7 °F 86% 30.27 in 10.0 mi Calm Calm - N/A   Clear
10:35 PM 49.6 °F 45.5 °F 86% 30.27 in 10.0 mi Calm Calm - N/A   Clear
10:55 PM 49.6 °F 45.9 °F 87% 30.27 in 10.0 mi Calm Calm - N/A   Clear
11:15 PM 49.6 °F 45.9 °F 87% 30.27 in 10.0 mi Calm Calm - N/A   Clear
11:35 PM 49.6 °F 46.2 °F 88% 30.28 in 10.0 mi Calm Calm - N/A   Clear
11:55 PM 49.6 °F 46.2 °F 88% 30.28 in 10.0 mi Calm Calm - N/A   Clear